Pitt-Greenville Airport

Airport
ICAO code: 
KPGV
Summary
ICAO Region: 
NAM
Territory: 
Location: 
Greenville, North Carolina,
Coordinates: 
Aerial View: 
35° 37' 58.894" N, 77° 23' 13.164" W
Metar
Observation
KPGV 040815Z AUTO 00000KT 7SM CLR 08/08 A3006 RMK AO2
Station
Pitt-Greenville Airport
Date/Time
2021-12-04 08:15:00
Wind direction
Wind speed
00 kts
Lowest cloud amount
n/a
Temperature
8°C
Dew point
8°C
Humidity
100%
Weather condition
n/a

Description

Pitt-Greenville Airport is a public use airport located 3 km north of the central business district of Greenville, a city in Pitt County, North Carolina.

Climatology

Humid “subtropical” climate (Köppen climate classification Cfa) - characterized by hot, humid summers and cool winters. Significant amounts of precipitation occur in all seasons in most areas. Winter rainfall (and sometimes snowfall) is associated with large storms that the westerlies steer from west to east. Most summer rainfall occurs during thunderstorms and occasional tropical storms (hurricanes).

Runways

Designator Length Width Surface Rops
15/33 819 46 ASP Yes/Yes
8/26 1523 46 ASP Yes/Yes
2/20 1981 46 ASP Yes/Yes
Airport map: 
Aerial View: 

SKYbrary Partners:

Safety knowledge contributed by: